sensor_id;sensor_type;location;lat;lon;timestamp;P1;durP1;ratioP1;P2;durP2;ratioP2
67063;SDS011;58476;48.072;11.970;2024-01-30T00:01:36;7.50;;;4.60;;
67063;SDS011;58476;48.072;11.970;2024-01-30T00:04:01;6.50;;;4.30;;
67063;SDS011;58476;48.072;11.970;2024-01-30T00:06:27;6.05;;;4.25;;
67063;SDS011;58476;48.072;11.970;2024-01-30T00:08:52;8.40;;;4.90;;
67063;SDS011;58476;48.072;11.970;2024-01-30T00:11:18;7.53;;;4.80;;
67063;SDS011;58476;48.072;11.970;2024-01-30T00:13:43;6.70;;;4.53;;
67063;SDS011;58476;48.072;11.970;2024-01-30T00:16:08;8.73;;;4.75;;
67063;SDS011;58476;48.072;11.970;2024-01-30T00:18:44;6.40;;;4.53;;
67063;SDS011;58476;48.072;11.970;2024-01-30T00:21:09;8.00;;;4.53;;
67063;SDS011;58476;48.072;11.970;2024-01-30T00:23:35;7.40;;;4.75;;
67063;SDS011;58476;48.072;11.970;2024-01-30T00:26:00;7.75;;;4.47;;
67063;SDS011;58476;48.072;11.970;2024-01-30T00:28:25;7.40;;;4.65;;
67063;SDS011;58476;48.072;11.970;2024-01-30T00:30:51;7.20;;;4.40;;
67063;SDS011;58476;48.072;11.970;2024-01-30T00:33:16;7.35;;;4.40;;
67063;SDS011;58476;48.072;11.970;2024-01-30T00:35:41;7.70;;;4.20;;
67063;SDS011;58476;48.072;11.970;2024-01-30T00:38:07;7.13;;;4.75;;
67063;SDS011;58476;48.072;11.970;2024-01-30T00:40:32;5.68;;;3.92;;
67063;SDS011;58476;48.072;11.970;2024-01-30T00:42:57;5.72;;;3.88;;
67063;SDS011;58476;48.072;11.970;2024-01-30T00:45:23;6.82;;;4.30;;
67063;SDS011;58476;48.072;11.970;2024-01-30T00:47:48;7.30;;;3.90;;
67063;SDS011;58476;48.072;11.970;2024-01-30T00:50:13;7.22;;;4.25;;
67063;SDS011;58476;48.072;11.970;2024-01-30T00:52:39;8.10;;;4.20;;
67063;SDS011;58476;48.072;11.970;2024-01-30T00:55:04;6.97;;;4.60;;
67063;SDS011;58476;48.072;11.970;2024-01-30T00:57:30;6.70;;;3.95;;
67063;SDS011;58476;48.072;11.970;2024-01-30T00:59:55;6.38;;;4.10;;
67063;SDS011;58476;48.072;11.970;2024-01-30T01:02:21;6.43;;;4.00;;
67063;SDS011;58476;48.072;11.970;2024-01-30T01:04:46;6.57;;;4.18;;
67063;SDS011;58476;48.072;11.970;2024-01-30T01:07:11;7.30;;;4.15;;
67063;SDS011;58476;48.072;11.970;2024-01-30T01:09:37;6.75;;;4.18;;
67063;SDS011;58476;48.072;11.970;2024-01-30T01:12:02;6.10;;;3.95;;
67063;SDS011;58476;48.072;11.970;2024-01-30T01:14:29;7.20;;;4.03;;
67063;SDS011;58476;48.072;11.970;2024-01-30T01:16:54;6.03;;;4.03;;
67063;SDS011;58476;48.072;11.970;2024-01-30T01:19:19;5.28;;;3.78;;
67063;SDS011;58476;48.072;11.970;2024-01-30T01:21:45;6.10;;;3.85;;
67063;SDS011;58476;48.072;11.970;2024-01-30T01:24:10;6.72;;;4.05;;
67063;SDS011;58476;48.072;11.970;2024-01-30T01:26:35;6.32;;;3.83;;
67063;SDS011;58476;48.072;11.970;2024-01-30T01:29:01;7.10;;;4.20;;
67063;SDS011;58476;48.072;11.970;2024-01-30T01:31:26;6.57;;;3.80;;
67063;SDS011;58476;48.072;11.970;2024-01-30T01:33:51;5.30;;;3.55;;
67063;SDS011;58476;48.072;11.970;2024-01-30T01:36:17;6.50;;;4.05;;
67063;SDS011;58476;48.072;11.970;2024-01-30T01:38:42;6.22;;;3.97;;
67063;SDS011;58476;48.072;11.970;2024-01-30T01:41:07;6.20;;;3.72;;
67063;SDS011;58476;48.072;11.970;2024-01-30T01:43:33;6.22;;;3.63;;
67063;SDS011;58476;48.072;11.970;2024-01-30T01:45:58;7.68;;;3.60;;
67063;SDS011;58476;48.072;11.970;2024-01-30T01:48:23;6.38;;;3.80;;
67063;SDS011;58476;48.072;11.970;2024-01-30T01:50:49;7.20;;;3.65;;
67063;SDS011;58476;48.072;11.970;2024-01-30T01:53:15;7.82;;;4.03;;
67063;SDS011;58476;48.072;11.970;2024-01-30T01:55:40;6.18;;;3.70;;
67063;SDS011;58476;48.072;11.970;2024-01-30T01:58:06;5.40;;;3.65;;
67063;SDS011;58476;48.072;11.970;2024-01-30T02:00:32;6.20;;;3.78;;
67063;SDS011;58476;48.072;11.970;2024-01-30T02:02:57;5.25;;;3.53;;
67063;SDS011;58476;48.072;11.970;2024-01-30T02:05:24;5.43;;;3.60;;
67063;SDS011;58476;48.072;11.970;2024-01-30T02:07:50;6.45;;;3.90;;
67063;SDS011;58476;48.072;11.970;2024-01-30T02:10:15;6.65;;;4.05;;
67063;SDS011;58476;48.072;11.970;2024-01-30T02:12:40;5.20;;;3.50;;
67063;SDS011;58476;48.072;11.970;2024-01-30T02:15:06;6.45;;;3.90;;
67063;SDS011;58476;48.072;11.970;2024-01-30T02:17:31;6.43;;;3.90;;
67063;SDS011;58476;48.072;11.970;2024-01-30T02:19:57;5.50;;;3.70;;
67063;SDS011;58476;48.072;11.970;2024-01-30T02:22:22;6.80;;;3.70;;
67063;SDS011;58476;48.072;11.970;2024-01-30T02:24:48;6.63;;;3.88;;
67063;SDS011;58476;48.072;11.970;2024-01-30T02:27:14;6.00;;;3.80;;
67063;SDS011;58476;48.072;11.970;2024-01-30T02:29:39;6.43;;;3.78;;
67063;SDS011;58476;48.072;11.970;2024-01-30T02:32:04;6.30;;;3.70;;
67063;SDS011;58476;48.072;11.970;2024-01-30T02:34:30;6.88;;;4.18;;
67063;SDS011;58476;48.072;11.970;2024-01-30T02:36:56;5.88;;;3.83;;
67063;SDS011;58476;48.072;11.970;2024-01-30T02:39:21;5.30;;;3.80;;
67063;SDS011;58476;48.072;11.970;2024-01-30T02:41:46;8.52;;;3.60;;
67063;SDS011;58476;48.072;11.970;2024-01-30T02:44:11;5.53;;;3.70;;
67063;SDS011;58476;48.072;11.970;2024-01-30T02:46:37;6.50;;;3.80;;
67063;SDS011;58476;48.072;11.970;2024-01-30T02:49:02;5.40;;;3.72;;
67063;SDS011;58476;48.072;11.970;2024-01-30T02:51:28;6.63;;;3.58;;
67063;SDS011;58476;48.072;11.970;2024-01-30T02:53:53;6.20;;;3.70;;
67063;SDS011;58476;48.072;11.970;2024-01-30T02:56:18;5.78;;;3.70;;
67063;SDS011;58476;48.072;11.970;2024-01-30T02:58:44;6.20;;;3.70;;
67063;SDS011;58476;48.072;11.970;2024-01-30T03:01:09;5.60;;;3.58;;
67063;SDS011;58476;48.072;11.970;2024-01-30T03:03:34;5.82;;;3.80;;
67063;SDS011;58476;48.072;11.970;2024-01-30T03:06:00;7.72;;;3.78;;
67063;SDS011;58476;48.072;11.970;2024-01-30T03:08:25;7.28;;;4.00;;
67063;SDS011;58476;48.072;11.970;2024-01-30T03:10:50;5.50;;;3.65;;
67063;SDS011;58476;48.072;11.970;2024-01-30T03:13:16;4.90;;;3.20;;
67063;SDS011;58476;48.072;11.970;2024-01-30T03:15:41;5.30;;;3.72;;
67063;SDS011;58476;48.072;11.970;2024-01-30T03:18:06;5.80;;;3.42;;
67063;SDS011;58476;48.072;11.970;2024-01-30T03:20:32;5.45;;;3.63;;
67063;SDS011;58476;48.072;11.970;2024-01-30T03:22:59;4.65;;;3.25;;
67063;SDS011;58476;48.072;11.970;2024-01-30T03:25:25;5.50;;;3.50;;
67063;SDS011;58476;48.072;11.970;2024-01-30T03:27:50;8.20;;;4.13;;
67063;SDS011;58476;48.072;11.970;2024-01-30T03:30:15;5.40;;;3.33;;
67063;SDS011;58476;48.072;11.970;2024-01-30T03:32:41;5.18;;;3.38;;
67063;SDS011;58476;48.072;11.970;2024-01-30T03:35:06;5.63;;;3.60;;
67063;SDS011;58476;48.072;11.970;2024-01-30T03:37:32;5.38;;;3.60;;
67063;SDS011;58476;48.072;11.970;2024-01-30T03:39:57;5.60;;;3.40;;
67063;SDS011;58476;48.072;11.970;2024-01-30T03:42:22;5.07;;;3.47;;
67063;SDS011;58476;48.072;11.970;2024-01-30T03:44:48;4.90;;;3.60;;
67063;SDS011;58476;48.072;11.970;2024-01-30T03:47:13;4.97;;;3.70;;
67063;SDS011;58476;48.072;11.970;2024-01-30T03:49:39;4.93;;;3.40;;
67063;SDS011;58476;48.072;11.970;2024-01-30T03:52:05;4.47;;;3.45;;
67063;SDS011;58476;48.072;11.970;2024-01-30T03:54:30;5.32;;;3.30;;
67063;SDS011;58476;48.072;11.970;2024-01-30T03:56:55;5.00;;;3.47;;
67063;SDS011;58476;48.072;11.970;2024-01-30T03:59:21;4.93;;;3.55;;
67063;SDS011;58476;48.072;11.970;2024-01-30T04:01:46;5.90;;;3.47;;
67063;SDS011;58476;48.072;11.970;2024-01-30T04:04:11;6.38;;;4.07;;
67063;SDS011;58476;48.072;11.970;2024-01-30T04:06:37;5.78;;;3.60;;
67063;SDS011;58476;48.072;11.970;2024-01-30T04:09:02;5.47;;;3.70;;
67063;SDS011;58476;48.072;11.970;2024-01-30T04:11:27;5.25;;;3.58;;
67063;SDS011;58476;48.072;11.970;2024-01-30T04:13:53;5.47;;;3.75;;
67063;SDS011;58476;48.072;11.970;2024-01-30T04:16:21;5.18;;;3.40;;
67063;SDS011;58476;48.072;11.970;2024-01-30T04:18:47;6.03;;;3.42;;
67063;SDS011;58476;48.072;11.970;2024-01-30T04:21:12;5.47;;;3.47;;
67063;SDS011;58476;48.072;11.970;2024-01-30T04:23:39;6.22;;;3.63;;
67063;SDS011;58476;48.072;11.970;2024-01-30T04:26:05;5.38;;;3.55;;
67063;SDS011;58476;48.072;11.970;2024-01-30T04:28:30;5.57;;;3.63;;
67063;SDS011;58476;48.072;11.970;2024-01-30T04:30:55;5.53;;;3.45;;
67063;SDS011;58476;48.072;11.970;2024-01-30T04:33:21;5.38;;;3.33;;
67063;SDS011;58476;48.072;11.970;2024-01-30T04:35:46;5.10;;;3.38;;
67063;SDS011;58476;48.072;11.970;2024-01-30T04:38:11;4.65;;;3.17;;
67063;SDS011;58476;48.072;11.970;2024-01-30T04:40:37;5.53;;;3.50;;
67063;SDS011;58476;48.072;11.970;2024-01-30T04:43:02;4.53;;;3.17;;
67063;SDS011;58476;48.072;11.970;2024-01-30T04:45:27;4.70;;;3.60;;
67063;SDS011;58476;48.072;11.970;2024-01-30T04:47:53;5.43;;;3.42;;
67063;SDS011;58476;48.072;11.970;2024-01-30T04:50:18;5.68;;;3.65;;
67063;SDS011;58476;48.072;11.970;2024-01-30T04:52:43;4.97;;;3.33;;
67063;SDS011;58476;48.072;11.970;2024-01-30T04:55:09;4.95;;;3.08;;
67063;SDS011;58476;48.072;11.970;2024-01-30T04:57:34;4.53;;;3.00;;
67063;SDS011;58476;48.072;11.970;2024-01-30T05:00:00;4.88;;;3.00;;
67063;SDS011;58476;48.072;11.970;2024-01-30T05:02:26;5.15;;;3.38;;
67063;SDS011;58476;48.072;11.970;2024-01-30T05:04:52;4.93;;;3.53;;
67063;SDS011;58476;48.072;11.970;2024-01-30T05:07:17;4.63;;;3.00;;
67063;SDS011;58476;48.072;11.970;2024-01-30T05:09:42;4.47;;;3.00;;
67063;SDS011;58476;48.072;11.970;2024-01-30T05:12:08;5.75;;;3.30;;
67063;SDS011;58476;48.072;11.970;2024-01-30T05:14:33;5.00;;;3.20;;
67063;SDS011;58476;48.072;11.970;2024-01-30T05:16:59;8.57;;;3.20;;
67063;SDS011;58476;48.072;11.970;2024-01-30T05:19:24;16.23;;;4.10;;
67063;SDS011;58476;48.072;11.970;2024-01-30T05:21:49;10.30;;;3.17;;
67063;SDS011;58476;48.072;11.970;2024-01-30T05:24:15;8.05;;;3.28;;
67063;SDS011;58476;48.072;11.970;2024-01-30T05:26:40;15.25;;;3.65;;
67063;SDS011;58476;48.072;11.970;2024-01-30T05:29:06;7.95;;;4.07;;
67063;SDS011;58476;48.072;11.970;2024-01-30T05:31:31;10.23;;;3.30;;
67063;SDS011;58476;48.072;11.970;2024-01-30T05:33:57;11.93;;;3.63;;
67063;SDS011;58476;48.072;11.970;2024-01-30T05:36:22;7.20;;;3.40;;
67063;SDS011;58476;48.072;11.970;2024-01-30T05:38:47;6.57;;;3.17;;
67063;SDS011;58476;48.072;11.970;2024-01-30T05:41:13;10.35;;;3.10;;
67063;SDS011;58476;48.072;11.970;2024-01-30T05:43:38;8.88;;;2.95;;
67063;SDS011;58476;48.072;11.970;2024-01-30T05:46:06;10.85;;;3.10;;
67063;SDS011;58476;48.072;11.970;2024-01-30T05:48:32;8.35;;;2.90;;
67063;SDS011;58476;48.072;11.970;2024-01-30T05:50:58;10.88;;;3.53;;
67063;SDS011;58476;48.072;11.970;2024-01-30T05:53:26;11.23;;;3.80;;
67063;SDS011;58476;48.072;11.970;2024-01-30T05:55:54;11.05;;;3.38;;
67063;SDS011;58476;48.072;11.970;2024-01-30T05:58:20;15.10;;;3.40;;
67063;SDS011;58476;48.072;11.970;2024-01-30T06:00:47;10.73;;;3.95;;
67063;SDS011;58476;48.072;11.970;2024-01-30T06:03:13;13.63;;;3.28;;
67063;SDS011;58476;48.072;11.970;2024-01-30T06:05:38;13.20;;;3.60;;
67063;SDS011;58476;48.072;11.970;2024-01-30T06:08:03;8.15;;;3.42;;
67063;SDS011;58476;48.072;11.970;2024-01-30T06:10:29;11.05;;;3.30;;
67063;SDS011;58476;48.072;11.970;2024-01-30T06:12:54;9.43;;;3.15;;
67063;SDS011;58476;48.072;11.970;2024-01-30T06:15:20;8.38;;;3.50;;
67063;SDS011;58476;48.072;11.970;2024-01-30T06:17:45;10.43;;;3.17;;
67063;SDS011;58476;48.072;11.970;2024-01-30T06:20:10;10.25;;;4.00;;
67063;SDS011;58476;48.072;11.970;2024-01-30T06:22:36;9.32;;;3.55;;
67063;SDS011;58476;48.072;11.970;2024-01-30T06:25:01;8.57;;;3.50;;
67063;SDS011;58476;48.072;11.970;2024-01-30T06:27:27;9.80;;;4.15;;
67063;SDS011;58476;48.072;11.970;2024-01-30T06:29:52;7.45;;;3.13;;
67063;SDS011;58476;48.072;11.970;2024-01-30T06:32:17;6.10;;;3.42;;
67063;SDS011;58476;48.072;11.970;2024-01-30T06:34:43;8.48;;;3.30;;
67063;SDS011;58476;48.072;11.970;2024-01-30T06:37:08;11.82;;;3.10;;
67063;SDS011;58476;48.072;11.970;2024-01-30T06:39:33;11.52;;;3.92;;
67063;SDS011;58476;48.072;11.970;2024-01-30T06:41:59;12.02;;;3.50;;
67063;SDS011;58476;48.072;11.970;2024-01-30T06:44:24;12.82;;;3.55;;
67063;SDS011;58476;48.072;11.970;2024-01-30T06:46:50;14.60;;;3.90;;
67063;SDS011;58476;48.072;11.970;2024-01-30T06:49:15;12.95;;;4.28;;
67063;SDS011;58476;48.072;11.970;2024-01-30T06:51:40;13.20;;;3.80;;
67063;SDS011;58476;48.072;11.970;2024-01-30T06:54:06;12.27;;;3.50;;
67063;SDS011;58476;48.072;11.970;2024-01-30T06:56:31;7.95;;;3.45;;
67063;SDS011;58476;48.072;11.970;2024-01-30T06:58:56;10.15;;;4.20;;
67063;SDS011;58476;48.072;11.970;2024-01-30T07:01:27;13.40;;;4.38;;
67063;SDS011;58476;48.072;11.970;2024-01-30T07:03:52;7.55;;;3.33;;
67063;SDS011;58476;48.072;11.970;2024-01-30T07:06:18;12.02;;;3.33;;
67063;SDS011;58476;48.072;11.970;2024-01-30T07:08:45;13.43;;;3.67;;
67063;SDS011;58476;48.072;11.970;2024-01-30T07:11:10;13.57;;;3.88;;
67063;SDS011;58476;48.072;11.970;2024-01-30T07:13:35;11.60;;;3.58;;
67063;SDS011;58476;48.072;11.970;2024-01-30T07:16:01;18.60;;;4.25;;
67063;SDS011;58476;48.072;11.970;2024-01-30T07:18:26;13.90;;;4.15;;
67063;SDS011;58476;48.072;11.970;2024-01-30T07:20:51;13.18;;;3.38;;
67063;SDS011;58476;48.072;11.970;2024-01-30T07:23:17;11.60;;;3.92;;
67063;SDS011;58476;48.072;11.970;2024-01-30T07:25:43;22.05;;;4.00;;
67063;SDS011;58476;48.072;11.970;2024-01-30T07:28:08;19.98;;;3.92;;
67063;SDS011;58476;48.072;11.970;2024-01-30T07:30:34;15.60;;;3.55;;
67063;SDS011;58476;48.072;11.970;2024-01-30T07:33:00;18.27;;;3.85;;
67063;SDS011;58476;48.072;11.970;2024-01-30T07:35:25;21.17;;;4.45;;
67063;SDS011;58476;48.072;11.970;2024-01-30T07:37:50;17.40;;;3.70;;
67063;SDS011;58476;48.072;11.970;2024-01-30T07:40:16;13.18;;;4.00;;
67063;SDS011;58476;48.072;11.970;2024-01-30T07:42:42;10.30;;;3.70;;
67063;SDS011;58476;48.072;11.970;2024-01-30T07:45:08;11.60;;;3.60;;
67063;SDS011;58476;48.072;11.970;2024-01-30T07:47:33;17.95;;;4.10;;
67063;SDS011;58476;48.072;11.970;2024-01-30T07:49:59;8.45;;;3.50;;
67063;SDS011;58476;48.072;11.970;2024-01-30T07:52:24;16.65;;;4.43;;
67063;SDS011;58476;48.072;11.970;2024-01-30T07:54:50;18.83;;;4.43;;
67063;SDS011;58476;48.072;11.970;2024-01-30T07:57:16;9.65;;;3.85;;
67063;SDS011;58476;48.072;11.970;2024-01-30T07:59:44;11.50;;;4.55;;
67063;SDS011;58476;48.072;11.970;2024-01-30T08:02:11;18.52;;;4.03;;
67063;SDS011;58476;48.072;11.970;2024-01-30T08:04:37;12.15;;;4.18;;
67063;SDS011;58476;48.072;11.970;2024-01-30T08:07:03;10.63;;;3.90;;
67063;SDS011;58476;48.072;11.970;2024-01-30T08:09:28;12.45;;;5.15;;
67063;SDS011;58476;48.072;11.970;2024-01-30T08:11:54;11.35;;;4.07;;
67063;SDS011;58476;48.072;11.970;2024-01-30T08:14:19;10.57;;;3.90;;
67063;SDS011;58476;48.072;11.970;2024-01-30T08:16:44;12.20;;;4.28;;
67063;SDS011;58476;48.072;11.970;2024-01-30T08:19:10;13.52;;;4.75;;
67063;SDS011;58476;48.072;11.970;2024-01-30T08:21:35;14.90;;;4.85;;
67063;SDS011;58476;48.072;11.970;2024-01-30T08:24:00;16.42;;;4.65;;
67063;SDS011;58476;48.072;11.970;2024-01-30T08:26:26;12.95;;;4.68;;
67063;SDS011;58476;48.072;11.970;2024-01-30T08:28:51;16.05;;;4.53;;
67063;SDS011;58476;48.072;11.970;2024-01-30T08:31:16;13.52;;;4.45;;
67063;SDS011;58476;48.072;11.970;2024-01-30T08:33:42;9.70;;;4.63;;
67063;SDS011;58476;48.072;11.970;2024-01-30T08:36:07;13.20;;;5.00;;
67063;SDS011;58476;48.072;11.970;2024-01-30T08:38:33;13.32;;;4.80;;
67063;SDS011;58476;48.072;11.970;2024-01-30T08:40:58;9.23;;;4.25;;
67063;SDS011;58476;48.072;11.970;2024-01-30T08:43:23;11.10;;;4.68;;
67063;SDS011;58476;48.072;11.970;2024-01-30T08:45:49;11.20;;;4.15;;
67063;SDS011;58476;48.072;11.970;2024-01-30T08:48:14;10.30;;;4.10;;
67063;SDS011;58476;48.072;11.970;2024-01-30T08:50:39;12.35;;;4.10;;
67063;SDS011;58476;48.072;11.970;2024-01-30T08:53:04;7.82;;;3.55;;
67063;SDS011;58476;48.072;11.970;2024-01-30T08:55:30;8.88;;;4.10;;
67063;SDS011;58476;48.072;11.970;2024-01-30T08:57:55;11.65;;;5.00;;
67063;SDS011;58476;48.072;11.970;2024-01-30T09:00:21;12.88;;;4.25;;
67063;SDS011;58476;48.072;11.970;2024-01-30T09:02:46;8.07;;;3.42;;
67063;SDS011;58476;48.072;11.970;2024-01-30T09:05:12;22.42;;;3.90;;
67063;SDS011;58476;48.072;11.970;2024-01-30T09:07:37;10.73;;;3.65;;
67063;SDS011;58476;48.072;11.970;2024-01-30T09:10:02;7.38;;;3.08;;
67063;SDS011;58476;48.072;11.970;2024-01-30T09:12:28;7.85;;;3.30;;
67063;SDS011;58476;48.072;11.970;2024-01-30T09:14:53;6.53;;;3.10;;
67063;SDS011;58476;48.072;11.970;2024-01-30T09:17:19;6.43;;;3.10;;
67063;SDS011;58476;48.072;11.970;2024-01-30T09:19:45;9.15;;;4.03;;
67063;SDS011;58476;48.072;11.970;2024-01-30T09:22:11;7.30;;;3.35;;
67063;SDS011;58476;48.072;11.970;2024-01-30T09:24:36;9.75;;;3.67;;
67063;SDS011;58476;48.072;11.970;2024-01-30T09:27:01;10.73;;;3.67;;
67063;SDS011;58476;48.072;11.970;2024-01-30T09:29:27;10.48;;;3.03;;
67063;SDS011;58476;48.072;11.970;2024-01-30T09:31:52;11.10;;;3.33;;
67063;SDS011;58476;48.072;11.970;2024-01-30T09:34:19;10.25;;;3.40;;
67063;SDS011;58476;48.072;11.970;2024-01-30T09:36:44;9.05;;;3.88;;
67063;SDS011;58476;48.072;11.970;2024-01-30T09:39:09;8.55;;;3.22;;
67063;SDS011;58476;48.072;11.970;2024-01-30T09:41:39;9.57;;;3.45;;
67063;SDS011;58476;48.072;11.970;2024-01-30T09:44:10;17.58;;;3.47;;
67063;SDS011;58476;48.072;11.970;2024-01-30T09:46:36;9.23;;;3.42;;
67063;SDS011;58476;48.072;11.970;2024-01-30T09:49:03;13.30;;;3.42;;
67063;SDS011;58476;48.072;11.970;2024-01-30T09:51:28;6.60;;;2.90;;
67063;SDS011;58476;48.072;11.970;2024-01-30T09:53:54;6.25;;;3.22;;
67063;SDS011;58476;48.072;11.970;2024-01-30T09:56:20;12.38;;;3.33;;
67063;SDS011;58476;48.072;11.970;2024-01-30T09:58:46;12.18;;;3.00;;
67063;SDS011;58476;48.072;11.970;2024-01-30T10:01:11;11.70;;;3.20;;
67063;SDS011;58476;48.072;11.970;2024-01-30T10:03:37;17.50;;;3.92;;
67063;SDS011;58476;48.072;11.970;2024-01-30T10:06:02;27.85;;;4.20;;
67063;SDS011;58476;48.072;11.970;2024-01-30T10:08:28;16.08;;;3.75;;
67063;SDS011;58476;48.072;11.970;2024-01-30T10:10:53;9.95;;;3.00;;
67063;SDS011;58476;48.072;11.970;2024-01-30T10:13:19;10.63;;;2.97;;
67063;SDS011;58476;48.072;11.970;2024-01-30T10:15:44;11.50;;;3.03;;
67063;SDS011;58476;48.072;11.970;2024-01-30T10:18:10;15.05;;;3.25;;
67063;SDS011;58476;48.072;11.970;2024-01-30T10:20:35;14.50;;;2.83;;
67063;SDS011;58476;48.072;11.970;2024-01-30T10:23:01;21.38;;;3.95;;
67063;SDS011;58476;48.072;11.970;2024-01-30T10:25:27;11.32;;;2.92;;
67063;SDS011;58476;48.072;11.970;2024-01-30T10:27:55;12.40;;;3.10;;
67063;SDS011;58476;48.072;11.970;2024-01-30T10:30:21;16.50;;;3.33;;
67063;SDS011;58476;48.072;11.970;2024-01-30T10:32:47;19.77;;;2.88;;
67063;SDS011;58476;48.072;11.970;2024-01-30T10:35:13;10.38;;;3.38;;
67063;SDS011;58476;48.072;11.970;2024-01-30T10:37:38;20.38;;;3.72;;
67063;SDS011;58476;48.072;11.970;2024-01-30T10:40:04;9.77;;;2.70;;
67063;SDS011;58476;48.072;11.970;2024-01-30T10:42:31;6.95;;;2.42;;
67063;SDS011;58476;48.072;11.970;2024-01-30T10:47:32;5.47;;;2.55;;
67063;SDS011;58476;48.072;11.970;2024-01-30T10:49:59;7.63;;;2.70;;
67063;SDS011;58476;48.072;11.970;2024-01-30T10:52:29;9.90;;;2.63;;
67063;SDS011;58476;48.072;11.970;2024-01-30T10:54:59;10.85;;;3.00;;
67063;SDS011;58476;48.072;11.970;2024-01-30T10:57:25;10.73;;;2.63;;
67063;SDS011;58476;48.072;11.970;2024-01-30T10:59:55;5.10;;;2.53;;
67063;SDS011;58476;48.072;11.970;2024-01-30T11:04:48;4.43;;;2.40;;
67063;SDS011;58476;48.072;11.970;2024-01-30T11:07:17;10.65;;;2.78;;
67063;SDS011;58476;48.072;11.970;2024-01-30T11:12:40;5.43;;;2.20;;
67063;SDS011;58476;48.072;11.970;2024-01-30T11:15:06;4.03;;;2.13;;
67063;SDS011;58476;48.072;11.970;2024-01-30T11:20:15;4.57;;;2.10;;
67063;SDS011;58476;48.072;11.970;2024-01-30T11:22:42;5.20;;;2.20;;
67063;SDS011;58476;48.072;11.970;2024-01-30T11:25:16;5.43;;;2.08;;
67063;SDS011;58476;48.072;11.970;2024-01-30T11:27:43;9.60;;;2.28;;
67063;SDS011;58476;48.072;11.970;2024-01-30T11:30:09;4.07;;;2.00;;
67063;SDS011;58476;48.072;11.970;2024-01-30T11:32:34;4.90;;;2.10;;
67063;SDS011;58476;48.072;11.970;2024-01-30T11:35:00;2.90;;;2.17;;
67063;SDS011;58476;48.072;11.970;2024-01-30T11:37:28;5.43;;;2.20;;
67063;SDS011;58476;48.072;11.970;2024-01-30T11:39:56;4.30;;;2.10;;
67063;SDS011;58476;48.072;11.970;2024-01-30T11:42:23;4.80;;;2.28;;
67063;SDS011;58476;48.072;11.970;2024-01-30T11:44:51;3.15;;;2.13;;
67063;SDS011;58476;48.072;11.970;2024-01-30T11:47:17;5.05;;;2.30;;
67063;SDS011;58476;48.072;11.970;2024-01-30T11:49:43;4.28;;;2.03;;
67063;SDS011;58476;48.072;11.970;2024-01-30T11:52:08;3.35;;;2.00;;
67063;SDS011;58476;48.072;11.970;2024-01-30T11:54:34;2.80;;;2.10;;
67063;SDS011;58476;48.072;11.970;2024-01-30T11:57:00;2.92;;;1.95;;
67063;SDS011;58476;48.072;11.970;2024-01-30T11:59:25;3.72;;;2.38;;
67063;SDS011;58476;48.072;11.970;2024-01-30T12:01:51;5.28;;;2.00;;
67063;SDS011;58476;48.072;11.970;2024-01-30T12:04:17;3.92;;;2.00;;
67063;SDS011;58476;48.072;11.970;2024-01-30T12:06:42;4.30;;;1.90;;
67063;SDS011;58476;48.072;11.970;2024-01-30T12:09:08;3.95;;;1.80;;
67063;SDS011;58476;48.072;11.970;2024-01-30T12:11:43;3.13;;;2.08;;
67063;SDS011;58476;48.072;11.970;2024-01-30T12:14:12;2.70;;;1.90;;
67063;SDS011;58476;48.072;11.970;2024-01-30T12:16:38;3.08;;;2.00;;
67063;SDS011;58476;48.072;11.970;2024-01-30T12:19:03;3.42;;;1.90;;
67063;SDS011;58476;48.072;11.970;2024-01-30T12:21:29;2.75;;;1.85;;
67063;SDS011;58476;48.072;11.970;2024-01-30T12:23:56;3.45;;;1.80;;
67063;SDS011;58476;48.072;11.970;2024-01-30T12:26:24;2.75;;;1.85;;
67063;SDS011;58476;48.072;11.970;2024-01-30T12:28:50;3.95;;;2.00;;
67063;SDS011;58476;48.072;11.970;2024-01-30T12:31:15;2.25;;;1.83;;
67063;SDS011;58476;48.072;11.970;2024-01-30T12:33:41;3.65;;;1.90;;
67063;SDS011;58476;48.072;11.970;2024-01-30T12:36:06;7.97;;;1.67;;
67063;SDS011;58476;48.072;11.970;2024-01-30T12:38:32;2.35;;;1.65;;
67063;SDS011;58476;48.072;11.970;2024-01-30T12:40:57;3.35;;;1.75;;
67063;SDS011;58476;48.072;11.970;2024-01-30T12:43:26;2.83;;;1.67;;
67063;SDS011;58476;48.072;11.970;2024-01-30T12:45:54;3.35;;;1.70;;
67063;SDS011;58476;48.072;11.970;2024-01-30T12:48:19;4.60;;;1.80;;
67063;SDS011;58476;48.072;11.970;2024-01-30T12:50:45;3.97;;;1.70;;
67063;SDS011;58476;48.072;11.970;2024-01-30T12:53:10;4.97;;;1.80;;
67063;SDS011;58476;48.072;11.970;2024-01-30T12:55:35;2.58;;;1.70;;
67063;SDS011;58476;48.072;11.970;2024-01-30T12:58:01;7.75;;;2.25;;
67063;SDS011;58476;48.072;11.970;2024-01-30T13:00:26;3.13;;;1.65;;
67063;SDS011;58476;48.072;11.970;2024-01-30T13:02:52;4.70;;;1.80;;
67063;SDS011;58476;48.072;11.970;2024-01-30T13:05:17;5.57;;;1.63;;
67063;SDS011;58476;48.072;11.970;2024-01-30T13:07:42;4.70;;;1.70;;
67063;SDS011;58476;48.072;11.970;2024-01-30T13:10:08;2.95;;;1.65;;
67063;SDS011;58476;48.072;11.970;2024-01-30T13:12:33;3.53;;;1.48;;
67063;SDS011;58476;48.072;11.970;2024-01-30T13:14:59;2.90;;;1.60;;
67063;SDS011;58476;48.072;11.970;2024-01-30T13:17:24;2.15;;;1.52;;
67063;SDS011;58476;48.072;11.970;2024-01-30T13:19:50;2.45;;;1.88;;
67063;SDS011;58476;48.072;11.970;2024-01-30T13:22:15;3.72;;;1.85;;
67063;SDS011;58476;48.072;11.970;2024-01-30T13:24:40;3.72;;;1.52;;
67063;SDS011;58476;48.072;11.970;2024-01-30T13:27:06;4.07;;;1.70;;
67063;SDS011;58476;48.072;11.970;2024-01-30T13:29:32;2.42;;;1.55;;
67063;SDS011;58476;48.072;11.970;2024-01-30T13:31:57;2.13;;;1.55;;
67063;SDS011;58476;48.072;11.970;2024-01-30T13:34:23;4.35;;;1.60;;
67063;SDS011;58476;48.072;11.970;2024-01-30T13:36:48;2.05;;;1.60;;
67063;SDS011;58476;48.072;11.970;2024-01-30T13:39:13;4.43;;;1.70;;
67063;SDS011;58476;48.072;11.970;2024-01-30T13:41:39;5.20;;;1.55;;
67063;SDS011;58476;48.072;11.970;2024-01-30T13:44:04;2.67;;;1.50;;
67063;SDS011;58476;48.072;11.970;2024-01-30T13:46:30;3.67;;;1.70;;
67063;SDS011;58476;48.072;11.970;2024-01-30T13:48:55;6.45;;;1.58;;
67063;SDS011;58476;48.072;11.970;2024-01-30T13:51:21;3.67;;;1.80;;
67063;SDS011;58476;48.072;11.970;2024-01-30T13:53:46;3.45;;;1.60;;
67063;SDS011;58476;48.072;11.970;2024-01-30T13:56:11;7.30;;;1.90;;
67063;SDS011;58476;48.072;11.970;2024-01-30T13:58:37;4.78;;;1.50;;
67063;SDS011;58476;48.072;11.970;2024-01-30T14:01:02;10.68;;;1.95;;
67063;SDS011;58476;48.072;11.970;2024-01-30T14:03:28;6.30;;;1.80;;
67063;SDS011;58476;48.072;11.970;2024-01-30T14:05:53;5.38;;;2.17;;
67063;SDS011;58476;48.072;11.970;2024-01-30T14:08:19;7.63;;;1.67;;
67063;SDS011;58476;48.072;11.970;2024-01-30T14:10:44;3.90;;;1.70;;
67063;SDS011;58476;48.072;11.970;2024-01-30T14:13:09;4.53;;;1.80;;
67063;SDS011;58476;48.072;11.970;2024-01-30T14:15:35;4.00;;;2.15;;
67063;SDS011;58476;48.072;11.970;2024-01-30T14:18:00;4.88;;;1.90;;
67063;SDS011;58476;48.072;11.970;2024-01-30T14:20:25;3.05;;;1.70;;
67063;SDS011;58476;48.072;11.970;2024-01-30T14:22:51;7.30;;;1.98;;
67063;SDS011;58476;48.072;11.970;2024-01-30T14:25:16;2.72;;;1.63;;
67063;SDS011;58476;48.072;11.970;2024-01-30T14:27:41;8.40;;;1.90;;
67063;SDS011;58476;48.072;11.970;2024-01-30T14:30:09;2.20;;;1.60;;
67063;SDS011;58476;48.072;11.970;2024-01-30T14:32:35;10.30;;;2.38;;